createdAt,value
2022-08-27T00:01:16.395Z,2.63
2022-08-27T00:03:45.086Z,2.58
2022-08-27T00:06:14.703Z,3.05
2022-08-27T00:08:45.651Z,3.78
2022-08-27T00:11:13.188Z,3.35
2022-08-27T00:13:40.191Z,3.00
2022-08-27T00:16:09.960Z,3.40
2022-08-27T00:18:38.483Z,3.17
2022-08-27T00:21:05.068Z,3.78
2022-08-27T00:23:34.542Z,3.13
2022-08-27T00:26:01.415Z,2.80
2022-08-27T00:28:29.894Z,3.00
2022-08-27T00:30:56.874Z,3.13
2022-08-27T00:33:24.511Z,3.50
2022-08-27T00:35:51.621Z,3.25
2022-08-27T00:38:19.400Z,2.65
2022-08-27T00:40:46.772Z,2.80
2022-08-27T00:43:13.815Z,2.85
2022-08-27T00:45:45.133Z,3.92
2022-08-27T00:48:15.983Z,3.78
2022-08-27T00:50:52.637Z,3.83
2022-08-27T00:53:23.159Z,3.60
2022-08-27T00:55:55.080Z,3.17
2022-08-27T00:58:33.886Z,3.90
2022-08-27T01:01:01.985Z,3.00
2022-08-27T01:03:28.606Z,2.60
2022-08-27T01:05:59.084Z,2.97
2022-08-27T01:08:29.386Z,3.22
2022-08-27T01:10:58.414Z,3.58
2022-08-27T01:13:58.711Z,4.22
2022-08-27T01:16:27.012Z,4.32
2022-08-27T01:18:55.838Z,5.13
2022-08-27T01:21:32.879Z,5.15
2022-08-27T01:24:21.816Z,5.03
2022-08-27T01:26:49.377Z,4.85
2022-08-27T01:29:17.480Z,5.30
2022-08-27T01:31:44.265Z,5.72
2022-08-27T01:34:10.882Z,5.95
2022-08-27T01:36:37.415Z,6.70
2022-08-27T01:39:04.171Z,5.75
2022-08-27T01:41:31.974Z,7.05
2022-08-27T01:43:58.637Z,5.63
2022-08-27T01:46:27.780Z,4.65
2022-08-27T01:48:55.273Z,3.67
2022-08-27T01:51:22.338Z,3.63
2022-08-27T01:53:48.961Z,4.43
2022-08-27T01:56:15.596Z,5.43
2022-08-27T01:58:43.653Z,6.05
2022-08-27T02:01:14.386Z,6.30
2022-08-27T02:03:41.307Z,4.55
2022-08-27T02:06:10.717Z,5.10
2022-08-27T02:08:37.776Z,4.82
2022-08-27T02:11:05.124Z,5.30
2022-08-27T02:13:31.786Z,5.68
2022-08-27T02:15:58.407Z,5.18
2022-08-27T02:18:25.056Z,5.60
2022-08-27T02:20:51.712Z,6.03
2022-08-27T02:23:18.713Z,6.25
2022-08-27T02:25:48.519Z,5.35
2022-08-27T02:28:15.192Z,5.70
2022-08-27T02:30:41.773Z,4.93
2022-08-27T02:33:10.473Z,4.50
2022-08-27T02:35:43.072Z,4.82
2022-08-27T02:38:10.820Z,4.87
2022-08-27T02:40:37.679Z,4.75
2022-08-27T02:43:05.014Z,6.25
2022-08-27T02:45:31.665Z,6.35
2022-08-27T02:47:58.241Z,6.68
2022-08-27T02:50:27.430Z,6.35
2022-08-27T02:52:54.779Z,4.93
2022-08-27T02:55:22.526Z,6.40
2022-08-27T02:57:49.369Z,5.95
2022-08-27T03:00:19.010Z,6.55
2022-08-27T03:02:45.670Z,6.13
2022-08-27T03:05:13.204Z,4.88
2022-08-27T03:07:40.258Z,5.63
2022-08-27T03:10:07.828Z,4.45
2022-08-27T03:12:36.320Z,3.75
2022-08-27T03:15:08.276Z,5.22
2022-08-27T03:17:53.517Z,5.53
2022-08-27T03:20:20.177Z,5.20
2022-08-27T03:22:46.977Z,4.82
2022-08-27T03:25:16.077Z,4.55
2022-08-27T03:27:42.756Z,4.60
2022-08-27T03:30:19.339Z,4.07
2022-08-27T03:32:46.561Z,4.72
2022-08-27T03:35:14.437Z,4.43
2022-08-27T03:37:41.237Z,3.70
2022-08-27T03:40:08.322Z,3.80
2022-08-27T03:42:35.395Z,3.22
2022-08-27T03:45:02.013Z,2.88
2022-08-27T03:47:28.562Z,2.72
2022-08-27T03:49:55.357Z,2.40
2022-08-27T03:52:22.346Z,2.50
2022-08-27T03:54:48.869Z,2.30
2022-08-27T03:57:15.477Z,3.10
2022-08-27T03:59:41.993Z,2.72
2022-08-27T04:02:08.681Z,2.33
2022-08-27T04:04:35.593Z,2.20
2022-08-27T04:07:02.142Z,2.22
2022-08-27T04:09:28.646Z,2.10
2022-08-27T04:11:55.383Z,1.70
2022-08-27T04:14:26.376Z,2.10
2022-08-27T04:16:54.961Z,1.70
2022-08-27T04:19:26.974Z,1.83
2022-08-27T04:21:54.012Z,1.80
2022-08-27T04:24:20.482Z,1.83
2022-08-27T04:26:47.754Z,1.67
2022-08-27T04:29:14.256Z,2.10
2022-08-27T04:31:40.815Z,2.30
2022-08-27T04:34:07.753Z,2.80
2022-08-27T04:36:34.373Z,2.03
2022-08-27T04:39:01.232Z,1.90
2022-08-27T04:41:28.969Z,1.50
2022-08-27T04:43:57.724Z,1.70
2022-08-27T04:46:29.782Z,1.88
2022-08-27T04:48:57.888Z,1.52
2022-08-27T04:51:25.513Z,1.85
2022-08-27T04:53:52.629Z,2.00
2022-08-27T04:56:22.310Z,1.40
2022-08-27T04:58:50.598Z,1.70
2022-08-27T05:01:19.615Z,1.60
2022-08-27T05:03:46.449Z,1.85
2022-08-27T05:06:13.314Z,1.75
2022-08-27T05:08:41.068Z,1.85
2022-08-27T05:11:10.917Z,1.65
2022-08-27T05:13:38.080Z,1.60
2022-08-27T05:16:07.692Z,1.63
2022-08-27T05:18:42.263Z,1.50
2022-08-27T05:21:27.336Z,1.80
2022-08-27T05:23:56.492Z,1.38
2022-08-27T05:26:23.364Z,1.30
2022-08-27T05:28:50.192Z,1.40
2022-08-27T05:31:17.882Z,1.30
2022-08-27T05:33:44.514Z,1.67
2022-08-27T05:36:17.618Z,1.05
2022-08-27T05:38:44.470Z,1.02
2022-08-27T05:41:14.910Z,1.23
2022-08-27T05:43:45.373Z,1.00
2022-08-27T05:46:16.961Z,1.20
2022-08-27T05:48:44.776Z,1.52
2022-08-27T05:51:25.648Z,1.92
2022-08-27T05:54:04.549Z,1.50
2022-08-27T05:56:36.156Z,2.03
2022-08-27T05:59:21.362Z,2.80
2022-08-27T06:01:50.153Z,2.17
2022-08-27T06:04:18.238Z,1.85
2022-08-27T06:06:46.049Z,1.45
2022-08-27T06:09:16.647Z,1.30
2022-08-27T06:11:43.545Z,1.50
2022-08-27T06:14:10.377Z,1.25
2022-08-27T06:16:38.250Z,1.42
2022-08-27T06:19:05.565Z,1.90
2022-08-27T06:21:32.364Z,2.45
2022-08-27T06:23:58.908Z,2.72
2022-08-27T06:26:26.800Z,2.63
2022-08-27T06:28:54.160Z,1.90
2022-08-27T06:31:26.607Z,1.77
2022-08-27T06:33:58.065Z,1.70
2022-08-27T06:36:27.564Z,2.38
2022-08-27T06:38:54.568Z,2.58
2022-08-27T06:41:24.115Z,2.72
2022-08-27T06:43:51.871Z,2.00
2022-08-27T06:46:25.166Z,1.80
2022-08-27T06:48:56.451Z,1.95
2022-08-27T06:51:26.281Z,2.00
2022-08-27T06:53:55.207Z,1.70
2022-08-27T06:56:22.500Z,1.50
2022-08-27T06:58:53.390Z,1.63
2022-08-27T07:01:24.204Z,1.63
2022-08-27T07:03:51.009Z,1.42
2022-08-27T07:06:18.127Z,1.40
2022-08-27T07:08:52.998Z,2.28
2022-08-27T07:11:20.967Z,2.15
2022-08-27T07:13:48.521Z,2.63
2022-08-27T07:16:17.799Z,2.60
2022-08-27T07:18:45.411Z,3.63
2022-08-27T07:21:12.627Z,3.20
2022-08-27T07:23:39.883Z,2.47
2022-08-27T07:26:10.949Z,4.85
2022-08-27T07:28:39.159Z,4.85
2022-08-27T07:31:09.050Z,4.10
2022-08-27T07:33:37.233Z,4.50
2022-08-27T07:36:06.220Z,3.92
2022-08-27T07:38:33.352Z,3.35
2022-08-27T07:41:04.913Z,4.00
2022-08-27T07:43:50.294Z,3.45
2022-08-27T07:46:24.198Z,3.35
2022-08-27T07:48:51.224Z,4.40
2022-08-27T07:51:20.652Z,3.38
2022-08-27T07:53:47.665Z,3.55
2022-08-27T07:56:14.213Z,4.03
2022-08-27T07:58:41.409Z,3.65
2022-08-27T08:01:08.044Z,4.43
2022-08-27T08:03:35.096Z,6.32
2022-08-27T08:06:08.003Z,6.57
2022-08-27T08:08:36.240Z,5.60
2022-08-27T08:11:06.288Z,5.60
2022-08-27T08:13:32.943Z,5.28
2022-08-27T08:15:59.472Z,4.97
2022-08-27T08:18:27.365Z,4.80
2022-08-27T08:20:58.964Z,5.68
2022-08-27T08:23:26.286Z,7.00
2022-08-27T08:25:52.849Z,8.00
2022-08-27T08:28:19.342Z,15.45
2022-08-27T08:30:47.687Z,11.73
2022-08-27T08:33:14.264Z,9.00
2022-08-27T08:35:41.340Z,8.07
2022-08-27T08:38:09.082Z,7.03
2022-08-27T08:40:40.987Z,8.98
2022-08-27T08:43:18.425Z,8.52
2022-08-27T08:45:45.887Z,7.35
2022-08-27T08:48:17.854Z,6.32
2022-08-27T08:51:24.153Z,7.30
2022-08-27T08:54:07.007Z,6.75
2022-08-27T08:56:55.088Z,8.20
2022-08-27T08:59:30.028Z,8.75
2022-08-27T09:01:58.661Z,8.30
2022-08-27T09:04:27.095Z,7.55
2022-08-27T09:07:11.448Z,7.85
2022-08-27T09:10:14.404Z,7.13
2022-08-27T09:12:41.485Z,7.90
2022-08-27T09:15:12.472Z,5.97
2022-08-27T09:17:41.831Z,7.57
2022-08-27T09:20:13.230Z,7.35
2022-08-27T09:23:22.210Z,7.50
2022-08-27T09:25:48.796Z,5.63
2022-08-27T09:28:39.367Z,7.13
2022-08-27T09:31:09.730Z,6.45
2022-08-27T09:33:46.066Z,7.22
2022-08-27T09:36:24.159Z,6.72
2022-08-27T09:38:58.573Z,7.13
2022-08-27T09:41:35.447Z,6.78
2022-08-27T09:44:09.368Z,7.07
2022-08-27T09:46:36.250Z,4.82
2022-08-27T09:49:14.318Z,5.60
2022-08-27T09:51:44.115Z,6.10
2022-08-27T09:54:11.881Z,5.93
2022-08-27T09:56:41.876Z,7.20
2022-08-27T09:59:08.310Z,5.93
2022-08-27T10:01:49.965Z,6.10
2022-08-27T10:04:24.084Z,6.30
2022-08-27T10:06:51.678Z,6.07
2022-08-27T10:09:35.489Z,5.95
2022-08-27T10:12:10.513Z,6.32
2022-08-27T10:14:58.836Z,5.40
2022-08-27T10:17:36.412Z,4.82
2022-08-27T10:20:30.301Z,4.55
2022-08-27T10:23:10.546Z,5.28
2022-08-27T10:25:42.500Z,5.53
2022-08-27T10:28:40.291Z,5.10
2022-08-27T10:31:25.160Z,5.47
2022-08-27T10:34:01.274Z,5.90
2022-08-27T10:36:57.150Z,5.13
2022-08-27T10:39:45.440Z,5.50
2022-08-27T10:42:26.204Z,4.80
2022-08-27T10:45:11.546Z,5.43
2022-08-27T10:48:25.603Z,4.50
2022-08-27T10:53:46.228Z,4.13
2022-08-27T10:56:30.687Z,4.90
2022-08-27T10:59:21.517Z,5.68
2022-08-27T11:02:20.414Z,4.20
2022-08-27T11:04:51.272Z,5.80
2022-08-27T11:07:24.564Z,5.05
2022-08-27T11:09:58.528Z,5.55
2022-08-27T11:12:38.916Z,5.40
2022-08-27T11:15:13.025Z,4.78
2022-08-27T11:18:04.688Z,5.10
2022-08-27T11:20:40.760Z,5.30
2022-08-27T11:23:12.229Z,5.07
2022-08-27T11:25:50.483Z,4.93
2022-08-27T11:28:21.314Z,4.82
2022-08-27T11:31:11.481Z,4.60
2022-08-27T11:33:47.362Z,4.28
2022-08-27T11:36:23.175Z,4.32
2022-08-27T11:39:04.896Z,4.18
2022-08-27T11:41:45.539Z,5.45
2022-08-27T11:44:14.950Z,4.47
2022-08-27T11:46:48.511Z,5.00
2022-08-27T11:49:40.993Z,5.22
2022-08-27T11:52:09.095Z,5.15
2022-08-27T11:55:10.994Z,5.47
2022-08-27T11:57:38.300Z,4.50
2022-08-27T12:00:20.194Z,6.70
2022-08-27T12:03:05.453Z,6.03
2022-08-27T12:05:37.943Z,6.13
2022-08-27T12:08:22.956Z,5.07
2022-08-27T12:11:34.437Z,4.97
2022-08-27T12:14:14.592Z,4.05
2022-08-27T12:16:57.664Z,3.80
2022-08-27T12:19:59.163Z,5.20
2022-08-27T12:23:13.417Z,4.07
2022-08-27T12:25:39.978Z,3.25
2022-08-27T12:28:09.197Z,4.35
2022-08-27T12:30:39.135Z,4.05
2022-08-27T12:33:27.068Z,4.35
2022-08-27T12:35:56.345Z,4.55
2022-08-27T12:38:34.894Z,5.18
2022-08-27T12:41:09.193Z,4.35
2022-08-27T12:43:38.332Z,4.18
2022-08-27T12:46:11.005Z,4.35
2022-08-27T12:48:42.370Z,4.60
2022-08-27T12:51:14.041Z,4.35
2022-08-27T12:54:08.341Z,4.57
2022-08-27T12:57:14.009Z,4.10
2022-08-27T13:00:12.908Z,3.97
2022-08-27T13:02:49.607Z,3.95
2022-08-27T13:05:22.621Z,3.63
2022-08-27T13:07:51.183Z,3.45
2022-08-27T13:10:20.548Z,3.80
2022-08-27T13:12:48.696Z,3.67
2022-08-27T13:15:19.276Z,4.13
2022-08-27T13:17:47.368Z,3.70
2022-08-27T13:20:14.440Z,4.05
2022-08-27T13:22:43.466Z,4.45
2022-08-27T13:25:20.988Z,4.00
2022-08-27T13:27:56.994Z,4.05
2022-08-27T13:30:35.702Z,4.80
2022-08-27T13:33:05.083Z,6.00
2022-08-27T13:35:32.494Z,5.20
2022-08-27T13:38:01.109Z,4.00
2022-08-27T13:40:37.016Z,3.88
2022-08-27T13:43:10.473Z,4.00
2022-08-27T13:45:41.841Z,4.00
2022-08-27T13:48:12.531Z,3.60
2022-08-27T13:50:49.387Z,3.88
2022-08-27T13:53:39.946Z,3.60
2022-08-27T13:56:07.276Z,3.92
2022-08-27T13:58:35.478Z,2.80
2022-08-27T14:01:14.938Z,2.88
2022-08-27T14:03:50.859Z,3.80
2022-08-27T14:06:45.219Z,3.17
2022-08-27T14:09:28.587Z,3.53
2022-08-27T14:12:03.394Z,3.78
2022-08-27T14:14:35.841Z,4.03
2022-08-27T14:17:04.509Z,4.05
2022-08-27T14:19:36.937Z,4.03
2022-08-27T14:22:04.353Z,3.80
2022-08-27T14:24:30.919Z,4.07
2022-08-27T14:27:07.758Z,3.88
2022-08-27T14:29:34.338Z,3.80
2022-08-27T14:32:00.814Z,4.00
2022-08-27T14:34:27.373Z,3.78
2022-08-27T14:36:54.981Z,4.22
2022-08-27T14:39:21.979Z,3.97
2022-08-27T14:41:53.108Z,3.88
2022-08-27T14:44:21.200Z,3.85
2022-08-27T14:46:47.857Z,3.67
2022-08-27T14:49:22.024Z,4.22
2022-08-27T14:51:49.055Z,4.13
2022-08-27T14:54:15.606Z,4.15
2022-08-27T14:56:42.108Z,3.97
2022-08-27T14:59:08.695Z,3.60
2022-08-27T15:01:38.058Z,3.83
2022-08-27T15:04:06.248Z,4.53
2022-08-27T15:06:32.811Z,3.78
2022-08-27T15:09:00.360Z,4.38
2022-08-27T15:11:31.408Z,3.90
2022-08-27T15:14:00.614Z,4.20
2022-08-27T15:16:33.180Z,4.13
2022-08-27T15:19:01.566Z,4.40
2022-08-27T15:21:30.438Z,4.53
2022-08-27T15:24:00.647Z,4.70
2022-08-27T15:26:28.136Z,4.78
2022-08-27T15:28:55.101Z,4.95
2022-08-27T15:31:21.802Z,5.25
2022-08-27T15:33:48.421Z,4.70
2022-08-27T15:36:15.088Z,4.50
2022-08-27T15:38:41.628Z,4.22
2022-08-27T15:41:10.232Z,3.92
2022-08-27T15:43:37.886Z,4.20
2022-08-27T15:46:05.397Z,4.15
2022-08-27T15:48:32.072Z,4.43
2022-08-27T15:51:04.717Z,3.78
2022-08-27T15:53:31.315Z,4.95
2022-08-27T15:55:58.072Z,4.60
2022-08-27T15:58:24.592Z,4.50
2022-08-27T16:01:01.587Z,4.57
2022-08-27T16:03:35.442Z,4.13
2022-08-27T16:06:05.058Z,4.70
2022-08-27T16:08:32.435Z,4.00
2022-08-27T16:11:03.858Z,4.45
2022-08-27T16:13:31.011Z,4.40
2022-08-27T16:15:57.919Z,4.53
2022-08-27T16:18:31.613Z,4.60
2022-08-27T16:21:01.065Z,5.18
2022-08-27T16:23:28.756Z,4.68
2022-08-27T16:25:56.079Z,4.53
2022-08-27T16:28:24.039Z,5.03
2022-08-27T16:30:52.849Z,5.00
2022-08-27T16:33:20.805Z,4.82
2022-08-27T16:35:48.295Z,5.38
2022-08-27T16:38:15.156Z,5.00
2022-08-27T16:40:44.819Z,5.72
2022-08-27T16:43:14.731Z,6.00
2022-08-27T16:45:41.952Z,6.03
2022-08-27T16:48:27.073Z,6.50
2022-08-27T16:50:53.587Z,5.50
2022-08-27T16:53:22.084Z,5.32
2022-08-27T16:55:50.824Z,6.68
2022-08-27T16:58:24.193Z,5.25
2022-08-27T17:00:56.747Z,5.82
2022-08-27T17:03:25.096Z,5.53
2022-08-27T17:05:52.251Z,5.65
2022-08-27T17:08:21.736Z,5.97
2022-08-27T17:10:55.363Z,5.20
2022-08-27T17:13:28.354Z,5.80
2022-08-27T17:15:56.114Z,4.93
2022-08-27T17:18:27.197Z,5.57
2022-08-27T17:20:55.359Z,5.38
2022-08-27T17:23:29.501Z,6.22
2022-08-27T17:25:56.236Z,5.00
2022-08-27T17:28:22.734Z,5.40
2022-08-27T17:30:49.286Z,4.95
2022-08-27T17:33:38.910Z,4.18
2022-08-27T17:36:07.523Z,4.50
2022-08-27T17:38:37.433Z,5.57
2022-08-27T17:41:16.212Z,5.13
2022-08-27T17:43:42.832Z,4.43
2022-08-27T17:46:09.654Z,4.97
2022-08-27T17:48:36.261Z,5.07
2022-08-27T17:51:03.923Z,4.78
2022-08-27T17:53:30.530Z,4.63
2022-08-27T17:55:57.017Z,4.80
2022-08-27T17:58:23.515Z,3.85
2022-08-27T18:00:50.036Z,4.70
2022-08-27T18:03:20.014Z,5.20
2022-08-27T18:05:48.031Z,5.03
2022-08-27T18:08:14.945Z,5.05
2022-08-27T18:10:42.646Z,5.40
2022-08-27T18:13:10.456Z,5.47
2022-08-27T18:15:41.098Z,5.40
2022-08-27T18:18:09.915Z,5.03
2022-08-27T18:20:36.992Z,5.57
2022-08-27T18:23:08.319Z,5.28
2022-08-27T18:25:37.572Z,5.00
2022-08-27T18:28:07.642Z,4.72
2022-08-27T18:30:34.935Z,4.65
2022-08-27T18:33:02.507Z,5.05
2022-08-27T18:35:31.851Z,5.47
2022-08-27T18:37:58.849Z,5.35
2022-08-27T18:40:30.450Z,5.30
2022-08-27T18:42:57.742Z,5.47
2022-08-27T18:45:28.643Z,6.10
2022-08-27T18:47:59.126Z,5.63
2022-08-27T18:50:26.621Z,6.05
2022-08-27T18:52:55.013Z,4.78
2022-08-27T18:55:25.648Z,5.45
2022-08-27T18:57:52.519Z,5.43
2022-08-27T19:00:20.189Z,5.00
2022-08-27T19:02:52.401Z,4.00
2022-08-27T19:05:25.103Z,3.92
2022-08-27T19:07:51.929Z,4.25
2022-08-27T19:10:19.254Z,3.50
2022-08-27T19:12:47.356Z,3.40
2022-08-27T19:15:14.234Z,3.20
2022-08-27T19:17:43.560Z,3.40
2022-08-27T19:20:11.466Z,3.00
2022-08-27T19:22:38.339Z,4.10
2022-08-27T19:25:07.271Z,4.45
2022-08-27T19:27:34.430Z,4.15
2022-08-27T19:30:00.897Z,4.93
2022-08-27T19:32:27.447Z,4.65
2022-08-27T19:34:53.967Z,4.43
2022-08-27T19:37:25.349Z,4.43
2022-08-27T19:39:52.596Z,4.55
2022-08-27T19:42:19.184Z,4.95
2022-08-27T19:44:45.866Z,4.00
2022-08-27T19:47:14.614Z,3.47
2022-08-27T19:49:41.913Z,3.25
2022-08-27T19:52:08.766Z,4.38
2022-08-27T19:54:43.146Z,5.00
2022-08-27T19:57:18.895Z,4.68
2022-08-27T19:59:45.646Z,4.22
2022-08-27T20:02:12.565Z,4.57
2022-08-27T20:04:56.022Z,4.03
2022-08-27T20:07:26.537Z,3.38
2022-08-27T20:09:53.054Z,3.83
2022-08-27T20:12:21.738Z,3.20
2022-08-27T20:14:51.201Z,4.93
2022-08-27T20:17:18.603Z,4.75
2022-08-27T20:19:45.380Z,3.58
2022-08-27T20:22:13.120Z,3.38
2022-08-27T20:24:39.682Z,3.33
2022-08-27T20:27:06.223Z,3.30
2022-08-27T20:29:33.172Z,3.40
2022-08-27T20:32:00.215Z,3.40
2022-08-27T20:34:29.396Z,3.50
2022-08-27T20:36:56.083Z,3.13
2022-08-27T20:39:22.594Z,4.03
2022-08-27T20:41:49.090Z,3.40
2022-08-27T20:44:16.997Z,3.10
2022-08-27T20:46:45.568Z,3.42
2022-08-27T20:49:17.513Z,2.80
2022-08-27T20:51:51.139Z,3.20
2022-08-27T20:54:30.212Z,2.85
2022-08-27T20:56:58.799Z,2.92
2022-08-27T20:59:44.311Z,3.42
2022-08-27T21:02:12.716Z,3.63
2022-08-27T21:04:48.363Z,3.40
2022-08-27T21:07:16.842Z,3.08
2022-08-27T21:09:55.502Z,3.10
2022-08-27T21:12:25.873Z,2.90
2022-08-27T21:14:55.667Z,2.78
2022-08-27T21:17:24.445Z,2.53
2022-08-27T21:19:51.071Z,2.58
2022-08-27T21:22:18.068Z,2.13
2022-08-27T21:24:47.086Z,2.28
2022-08-27T21:27:17.885Z,2.35
2022-08-27T21:29:45.045Z,2.25
2022-08-27T21:32:12.081Z,2.47
2022-08-27T21:34:38.638Z,2.60
2022-08-27T21:37:05.182Z,2.40
2022-08-27T21:39:33.110Z,2.00
2022-08-27T21:42:01.488Z,3.25
2022-08-27T21:44:29.787Z,2.67
2022-08-27T21:46:56.780Z,2.30
2022-08-27T21:49:23.596Z,2.90
2022-08-27T21:51:50.138Z,3.33
2022-08-27T21:54:16.671Z,4.00
2022-08-27T21:56:43.266Z,4.85
2022-08-27T21:59:10.055Z,4.22
2022-08-27T22:01:36.696Z,4.68
2022-08-27T22:04:03.670Z,4.70
2022-08-27T22:06:30.287Z,4.30
2022-08-27T22:08:56.876Z,3.90
2022-08-27T22:11:24.474Z,3.17
2022-08-27T22:13:52.413Z,3.47
2022-08-27T22:16:19.405Z,3.38
2022-08-27T22:18:46.063Z,3.20
2022-08-27T22:21:13.394Z,3.20
2022-08-27T22:23:42.243Z,3.15
2022-08-27T22:26:12.044Z,2.53
2022-08-27T22:28:38.652Z,3.33
2022-08-27T22:31:07.288Z,2.78
2022-08-27T22:33:34.109Z,3.40
2022-08-27T22:36:00.640Z,3.13
2022-08-27T22:38:27.182Z,3.03
2022-08-27T22:40:53.696Z,2.60
2022-08-27T22:43:20.334Z,2.40
2022-08-27T22:45:46.865Z,2.20
2022-08-27T22:48:13.676Z,2.03
2022-08-27T22:50:40.614Z,2.00
2022-08-27T22:53:07.480Z,2.20
2022-08-27T22:55:34.505Z,1.75
2022-08-27T22:58:02.073Z,1.90
2022-08-27T23:00:35.328Z,2.47
2022-08-27T23:03:05.381Z,2.50
2022-08-27T23:05:41.896Z,2.10
2022-08-27T23:08:11.045Z,2.20
2022-08-27T23:10:38.508Z,2.50
2022-08-27T23:13:06.859Z,2.35
2022-08-27T23:15:33.526Z,2.20
2022-08-27T23:18:01.441Z,2.05
2022-08-27T23:20:29.529Z,3.10
2022-08-27T23:22:56.945Z,2.83
2022-08-27T23:25:44.037Z,3.08
2022-08-27T23:28:14.867Z,2.88
2022-08-27T23:30:42.910Z,2.80
2022-08-27T23:33:09.759Z,2.75
2022-08-27T23:35:36.442Z,2.90
2022-08-27T23:38:03.715Z,2.45
2022-08-27T23:40:30.393Z,2.85
2022-08-27T23:42:57.040Z,2.70
2022-08-27T23:45:25.863Z,2.40
2022-08-27T23:47:52.585Z,2.22
2022-08-27T23:50:20.360Z,2.58
2022-08-27T23:52:49.707Z,2.00
2022-08-27T23:55:16.276Z,3.10
2022-08-27T23:57:43.407Z,4.97
